Time;durP1;ratioP1;P1;durP2;ratioP2;P2;SDS_P1;SDS_P2;PMS_P1;PMS_P2;Temp;Humidity;BMP_temperature;BMP_pressure;BME280_temperature;BME280_humidity;BME280_pressure;Samples;Min_cycle;Max_cycle;Signal;HPM_P1;HPM_P2
2023/05/29 00:01:31;;;;;;;3.88;2.25;;;;;;;13.96;100.00;92874.53;5047568;28;20060;-74
2023/05/29 00:03:58;;;;;;;3.40;2.20;;;;;;;13.96;100.00;92868.56;5048028;28;20119;-74
2023/05/29 00:06:25;;;;;;;3.22;2.10;;;;;;;13.97;100.00;92885.63;5041137;28;20049;-74
2023/05/29 00:08:52;;;;;;;3.38;1.83;;;;;;;13.94;100.00;92878.38;5047597;28;20126;-74
2023/05/29 00:11:20;;;;;;;4.15;2.42;;;;;;;13.85;100.00;92881.34;5047394;28;20049;-74
2023/05/29 00:13:47;;;;;;;3.97;2.10;;;;;;;13.80;100.00;92877.94;5047617;28;20049;-74
2023/05/29 00:16:14;;;;;;;3.15;1.80;;;;;;;13.73;100.00;92875.50;5047308;28;20053;-74
2023/05/29 00:18:46;;;;;;;3.00;2.10;;;;;;;13.62;100.00;92877.19;5047701;28;20452;-74
2023/05/29 00:21:13;;;;;;;3.75;2.33;;;;;;;13.65;100.00;92881.09;5047054;28;20053;-74
2023/05/29 00:23:40;;;;;;;4.15;2.20;;;;;;;13.57;100.00;92874.53;5047587;28;20052;-74
2023/05/29 00:26:07;;;;;;;3.67;2.20;;;;;;;13.58;100.00;92873.50;5047406;28;20462;-74
2023/05/29 00:28:36;;;;;;;3.72;2.28;;;;;;;13.32;100.00;92871.28;5047489;28;20095;-74
2023/05/29 00:31:03;;;;;;;3.20;1.90;;;;;;;13.13;100.00;92850.09;5047138;28;20485;-74
2023/05/29 00:33:30;;;;;;;4.60;2.60;;;;;;;13.35;100.00;92870.84;5047621;28;20128;-74
2023/05/29 00:35:57;;;;;;;4.22;2.42;;;;;;;13.40;100.00;92870.13;5046853;28;20070;-74
2023/05/29 00:38:23;;;;;;;3.72;2.22;;;;;;;13.43;100.00;92874.78;5047093;28;20056;-74
2023/05/29 00:40:50;;;;;;;3.38;2.15;;;;;;;13.39;100.00;92875.50;5046929;28;20095;-74
2023/05/29 00:43:17;;;;;;;3.20;2.03;;;;;;;13.28;100.00;92867.59;5047114;28;20060;-74
2023/05/29 00:45:45;;;;;;;3.03;1.98;;;;;;;13.25;100.00;92875.03;5046868;28;20049;-74
2023/05/29 00:48:12;;;;;;;4.18;2.40;;;;;;;13.20;100.00;92868.78;5047004;28;20052;-74
2023/05/29 00:50:39;;;;;;;3.13;2.13;;;;;;;13.06;100.00;92867.53;5047002;28;20045;-75
2023/05/29 00:53:07;;;;;;;5.18;2.47;;;;;;;12.79;100.00;92861.19;5047227;28;20079;-75
2023/05/29 00:55:35;;;;;;;4.22;2.85;;;;;;;12.78;100.00;92857.00;5047460;28;20095;-75
2023/05/29 00:58:02;;;;;;;4.53;2.65;;;;;;;12.67;100.00;92855.28;5047065;28;20737;-77
2023/05/29 01:00:30;;;;;;;3.90;2.75;;;;;;;12.54;100.00;92844.25;5047240;28;20442;-75
2023/05/29 01:02:59;;;;;;;4.78;2.85;;;;;;;12.56;100.00;92851.75;5047216;28;20049;-76
2023/05/29 01:05:26;;;;;;;4.10;2.72;;;;;;;12.48;100.00;92831.50;5040586;28;20045;-76
2023/05/29 01:07:52;;;;;;;3.97;2.40;;;;;;;12.53;100.00;92837.53;5046941;28;20045;-76
2023/05/29 01:10:19;;;;;;;4.72;2.88;;;;;;;12.56;100.00;92833.72;5046380;28;20041;-76
2023/05/29 01:12:54;;;;;;;4.07;2.58;;;;;;;12.58;100.00;92828.34;5048198;28;20588;-76
2023/05/29 01:15:34;;;;;;;3.53;2.50;;;;;;;12.70;100.00;92845.28;5051314;28;20452;-76
2023/05/29 01:18:26;;;;;;;4.95;2.25;;;;;;;12.70;100.00;92841.94;5050882;28;20048;-75
2023/05/29 01:21:01;;;;;;;3.58;2.47;;;;;;;12.78;100.00;92836.41;5051361;28;20107;-74
2023/05/29 01:23:54;;;;;;;3.50;1.95;;;;;;;12.81;100.00;92842.88;5050575;28;20509;-75
2023/05/29 01:26:46;;;;;;;4.55;3.10;;;;;;;12.81;100.00;92853.97;5050313;28;20131;-74
2023/05/29 01:29:15;;;;;;;5.10;2.85;;;;;;;12.90;100.00;92849.22;5051556;28;20071;-74
2023/05/29 01:31:44;;;;;;;6.20;3.15;;;;;;;12.96;100.00;92853.44;5051110;28;20061;-74
2023/05/29 01:34:11;;;;;;;4.32;3.20;;;;;;;12.97;100.00;92856.81;5049926;28;20083;-75
2023/05/29 01:36:38;;;;;;;4.95;2.90;;;;;;;13.01;100.00;92852.75;5050740;28;20049;-75
2023/05/29 01:39:06;;;;;;;4.43;2.75;;;;;;;13.03;100.00;92863.63;5050551;28;20045;-75
2023/05/29 01:41:34;;;;;;;3.95;2.60;;;;;;;13.03;100.00;92863.63;5040283;28;20053;-75
2023/05/29 01:44:09;;;;;;;5.60;3.17;;;;;;;12.78;100.00;92835.63;5047642;28;20436;-75
2023/05/29 01:46:37;;;;;;;4.07;3.00;;;;;;;12.80;100.00;92839.53;5049909;28;20497;-74
2023/05/29 01:49:04;;;;;;;4.13;2.67;;;;;;;12.92;100.00;92859.31;5050262;28;20084;-74
2023/05/29 01:51:31;;;;;;;4.57;3.20;;;;;;;12.93;100.00;92861.66;5049915;28;20126;-74
2023/05/29 01:53:59;;;;;;;4.50;3.22;;;;;;;12.97;100.00;92859.41;5050469;28;20076;-74
2023/05/29 01:56:28;;;;;;;4.25;2.40;;;;;;;12.91;100.00;92850.03;5049949;28;20084;-74
2023/05/29 01:58:56;;;;;;;5.28;3.10;;;;;;;12.88;100.00;92847.91;5051106;28;20135;-75
2023/05/29 02:01:25;;;;;;;4.80;3.30;;;;;;;12.81;100.00;92843.69;5050240;28;20052;-74
2023/05/29 02:03:52;;;;;;;3.97;2.53;;;;;;;12.76;100.00;92838.44;5050063;28;20045;-74
2023/05/29 02:06:19;;;;;;;6.07;3.45;;;;;;;12.60;100.00;92842.56;5046201;28;20057;-75
2023/05/29 02:08:46;;;;;;;4.55;2.95;;;;;;;12.63;100.00;92852.38;5050370;28;20053;-75
2023/05/29 02:11:12;;;;;;;4.82;3.50;;;;;;;12.58;100.00;92844.56;5050076;28;20049;-75
2023/05/29 02:13:39;;;;;;;4.47;3.10;;;;;;;12.57;100.00;92840.41;5049960;28;20542;-74
2023/05/29 02:16:06;;;;;;;5.38;3.05;;;;;;;12.50;100.00;92845.69;5049835;28;20053;-74
2023/05/29 02:18:35;;;;;;;5.15;3.33;;;;;;;12.38;100.00;92837.25;5049917;28;20056;-74
2023/05/29 02:21:02;;;;;;;5.25;3.45;;;;;;;12.40;100.00;92838.59;5049573;28;20051;-74
2023/05/29 02:23:29;;;;;;;5.25;3.53;;;;;;;12.42;100.00;92833.97;5049665;28;20072;-74
2023/05/29 02:25:55;;;;;;;6.28;3.38;;;;;;;12.42;100.00;92831.41;5049895;28;20045;-74
2023/05/29 02:28:22;;;;;;;4.95;3.28;;;;;;;12.56;100.00;92839.63;5049310;28;20048;-74
2023/05/29 02:30:49;;;;;;;5.28;3.47;;;;;;;12.60;100.00;92844.34;5049439;28;20060;-74
2023/05/29 02:33:15;;;;;;;7.30;4.05;;;;;;;12.60;100.00;92852.06;5049587;28;20575;-74
2023/05/29 02:35:44;;;;;;;4.80;3.35;;;;;;;12.66;100.00;92849.34;5049828;28;21046;-74
2023/05/29 02:38:10;;;;;;;6.97;3.90;;;;;;;12.59;100.00;92846.13;5048981;28;20052;-74
2023/05/29 02:40:37;;;;;;;5.32;3.50;;;;;;;12.67;100.00;92847.53;5049516;28;20611;-73
2023/05/29 02:43:04;;;;;;;4.82;3.13;;;;;;;12.73;100.00;92856.91;5049462;28;20049;-73
2023/05/29 02:45:31;;;;;;;7.25;4.38;;;;;;;12.76;100.00;92863.41;5048977;28;20049;-74
2023/05/29 02:47:57;;;;;;;6.80;3.80;;;;;;;12.80;100.00;92856.78;5049636;28;20041;-74
2023/05/29 02:50:24;;;;;;;8.60;4.28;;;;;;;12.83;100.00;92858.91;5049372;28;20111;-73
2023/05/29 02:52:52;;;;;;;5.78;3.95;;;;;;;12.85;100.00;92854.28;5049279;28;20053;-74
2023/05/29 02:55:19;;;;;;;6.43;4.18;;;;;;;12.86;100.00;92850.69;5048235;28;20047;-73
2023/05/29 02:57:48;;;;;;;6.00;3.95;;;;;;;12.80;100.00;92849.84;5048500;28;20451;-73
2023/05/29 03:00:16;;;;;;;5.25;3.75;;;;;;;12.73;100.00;92840.69;5042090;28;20460;-74
2023/05/29 03:02:42;;;;;;;5.40;4.05;;;;;;;12.79;100.00;92848.28;5048764;28;20041;-73
2023/05/29 03:05:10;;;;;;;6.63;4.15;;;;;;;12.73;100.00;92848.44;5039385;28;20069;-73
2023/05/29 03:07:37;;;;;;;6.13;3.72;;;;;;;12.78;100.00;92851.09;5046832;28;20103;-73
2023/05/29 03:10:05;;;;;;;6.28;4.28;;;;;;;12.81;100.00;92850.63;5048907;28;20057;-74
2023/05/29 03:12:32;;;;;;;5.95;3.83;;;;;;;12.82;100.00;92858.13;5048150;28;20061;-73
2023/05/29 03:14:59;;;;;;;8.65;4.80;;;;;;;12.77;100.00;92855.44;5048755;28;20126;-73
2023/05/29 03:17:25;;;;;;;7.35;4.22;;;;;;;12.69;100.00;92848.88;5043006;28;20053;-73
2023/05/29 03:19:52;;;;;;;6.00;3.83;;;;;;;12.74;100.00;92858.50;5041330;28;20080;-74
2023/05/29 03:22:19;;;;;;;9.07;5.05;;;;;;;12.76;100.00;92861.63;5048739;28;20440;-74
2023/05/29 03:24:46;;;;;;;5.32;3.72;;;;;;;12.80;100.00;92865.31;5048496;28;20045;-74
2023/05/29 03:27:14;;;;;;;6.32;3.92;;;;;;;12.78;100.00;92869.91;5048417;28;20386;-75
2023/05/29 03:29:41;;;;;;;6.93;3.45;;;;;;;12.63;100.00;92859.34;5048199;28;20065;-75
2023/05/29 03:32:08;;;;;;;4.60;3.22;;;;;;;12.45;100.00;92870.59;5035409;28;20094;-74
2023/05/29 03:34:34;;;;;;;4.85;3.33;;;;;;;12.48;100.00;92863.19;5048443;28;20049;-74
2023/05/29 03:37:01;;;;;;;5.35;3.42;;;;;;;12.29;100.00;92870.31;5047583;28;20421;-74
2023/05/29 03:39:28;;;;;;;4.55;3.35;;;;;;;12.15;100.00;92868.00;5048139;28;20084;-74
2023/05/29 03:41:55;;;;;;;4.90;3.45;;;;;;;12.21;100.00;92876.59;5047959;28;20048;-74
2023/05/29 03:44:23;;;;;;;6.35;4.15;;;;;;;12.21;100.00;92875.84;5047717;28;20045;-74
2023/05/29 03:46:51;;;;;;;5.07;3.28;;;;;;;12.25;100.00;92882.88;5048075;28;20114;-74
2023/05/29 03:49:17;;;;;;;6.38;3.85;;;;;;;12.36;100.00;92880.50;5047752;28;20045;-74
2023/05/29 03:51:44;;;;;;;5.22;3.13;;;;;;;12.42;100.00;92880.34;5047989;28;20052;-74
2023/05/29 03:54:11;;;;;;;8.32;3.38;;;;;;;12.47;100.00;92886.59;5047271;28;20041;-74
2023/05/29 03:56:37;;;;;;;5.78;3.60;;;;;;;12.54;100.00;92880.31;5047657;28;20510;-74
2023/05/29 03:59:04;;;;;;;5.13;3.30;;;;;;;12.68;100.00;92885.97;5038325;28;20095;-74
2023/05/29 04:01:32;;;;;;;4.38;3.03;;;;;;;12.74;100.00;92897.16;5045336;28;20049;-74
2023/05/29 04:03:59;;;;;;;6.30;3.30;;;;;;;12.87;100.00;92901.22;5047308;28;20053;-74
2023/05/29 04:06:26;;;;;;;4.78;3.35;;;;;;;13.07;100.00;92897.47;5048166;28;20068;-75
2023/05/29 04:08:53;;;;;;;5.55;3.08;;;;;;;13.16;100.00;92903.00;5048126;28;20461;-74
2023/05/29 04:11:22;;;;;;;4.75;3.22;;;;;;;13.27;100.00;92906.53;5047873;28;20041;-74
2023/05/29 04:13:48;;;;;;;6.03;3.88;;;;;;;13.35;100.00;92899.22;5047249;28;20049;-74
2023/05/29 04:16:15;;;;;;;6.22;3.28;;;;;;;13.40;100.00;92900.28;5040950;28;20046;-74
2023/05/29 04:18:43;;;;;;;5.90;3.88;;;;;;;13.48;100.00;92907.69;5041894;28;20544;-74
2023/05/29 04:21:11;;;;;;;10.02;3.35;;;;;;;13.54;100.00;92913.69;5047606;28;20138;-73
2023/05/29 04:23:37;;;;;;;6.22;4.03;;;;;;;13.61;100.00;92914.31;5047634;28;20044;-74
2023/05/29 04:26:05;;;;;;;5.32;3.33;;;;;;;13.66;100.00;92916.97;5047333;28;20049;-74
2023/05/29 04:28:32;;;;;;;5.10;3.50;;;;;;;13.74;100.00;92918.38;5047247;28;20050;-74
2023/05/29 04:30:58;;;;;;;4.75;3.55;;;;;;;13.81;100.00;92913.84;5047644;28;20037;-74
2023/05/29 04:33:28;;;;;;;5.47;3.50;;;;;;;13.81;100.00;92902.72;5047329;28;20057;-73
2023/05/29 04:35:56;;;;;;;5.47;3.40;;;;;;;13.86;100.00;92905.38;5047222;28;20049;-73
2023/05/29 04:38:24;;;;;;;5.10;3.00;;;;;;;13.98;100.00;92911.22;5046520;28;20048;-77
2023/05/29 04:40:52;;;;;;;4.43;3.28;;;;;;;13.96;100.00;92891.81;5047535;28;20041;-76
2023/05/29 04:43:19;;;;;;;4.75;3.40;;;;;;;14.16;100.00;92917.13;5046290;28;20087;-75
2023/05/29 04:45:46;;;;;;;5.32;3.17;;;;;;;14.28;100.00;92929.94;5047246;28;20048;-76
2023/05/29 04:48:13;;;;;;;5.18;3.00;;;;;;;14.32;100.00;92920.69;5045887;28;20562;-76
2023/05/29 04:50:39;;;;;;;4.65;2.78;;;;;;;14.46;100.00;92930.66;5046786;28;20045;-76
2023/05/29 04:53:07;;;;;;;3.80;2.53;;;;;;;14.49;100.00;92938.72;5046976;28;20053;-76
2023/05/29 04:55:34;;;;;;;4.82;2.95;;;;;;;14.40;100.00;92943.53;5046841;28;20045;-76
2023/05/29 04:58:01;;;;;;;3.70;2.50;;;;;;;14.33;100.00;92932.59;5047037;28;20096;-76
2023/05/29 05:00:28;;;;;;;4.97;2.75;;;;;;;14.00;100.00;92937.59;5046455;28;20053;-76
2023/05/29 05:02:55;;;;;;;3.67;2.30;;;;;;;14.08;100.00;92946.75;5046828;28;20052;-76
2023/05/29 05:05:22;;;;;;;2.90;1.98;;;;;;;14.21;100.00;92950.00;5034666;28;20042;-76
2023/05/29 05:07:49;;;;;;;5.15;2.92;;;;;;;14.33;100.00;92949.88;5037123;28;20052;-76
2023/05/29 05:10:17;;;;;;;3.75;2.38;;;;;;;14.41;100.00;92955.41;5046343;28;20048;-75
2023/05/29 05:12:43;;;;;;;4.18;2.85;;;;;;;14.47;100.00;92948.53;5046910;28;20053;-76
2023/05/29 05:15:11;;;;;;;8.82;3.22;;;;;;;14.65;100.00;92968.13;5046914;28;20417;-75
2023/05/29 05:17:38;;;;;;;4.05;2.78;;;;;;;14.78;100.00;92971.41;5047067;28;20056;-76
2023/05/29 05:20:06;;;;;;;4.30;2.78;;;;;;;14.88;100.00;92962.97;5031377;28;20044;-76
2023/05/29 05:22:33;;;;;;;5.85;3.20;;;;;;;15.00;100.00;92973.94;5046755;28;20102;-75
2023/05/29 05:25:00;;;;;;;5.07;3.05;;;;;;;15.03;100.00;92972.69;5046691;28;20037;-75
2023/05/29 05:27:32;;;;;;;5.47;3.38;;;;;;;15.12;100.00;92967.84;5047115;28;20157;-75
2023/05/29 05:29:59;;;;;;;5.40;2.88;;;;;;;15.27;100.00;92978.38;5047113;28;20134;-75
2023/05/29 05:32:28;;;;;;;4.70;3.13;;;;;;;15.39;100.00;92980.81;5047519;28;21012;-75
2023/05/29 05:34:55;;;;;;;4.68;2.78;;;;;;;15.51;100.00;92972.91;5047316;28;20052;-76
2023/05/29 05:37:23;;;;;;;5.22;2.58;;;;;;;15.50;100.00;92968.72;5046927;28;20049;-76
2023/05/29 05:39:49;;;;;;;4.45;2.83;;;;;;;15.69;100.00;92971.75;5046469;28;20053;-76
2023/05/29 05:42:16;;;;;;;4.65;3.00;;;;;;;15.68;100.00;92939.09;5046905;28;20049;-76
2023/05/29 05:44:44;;;;;;;3.90;2.53;;;;;;;15.95;100.00;92971.19;5046626;28;20045;-76
2023/05/29 05:47:12;;;;;;;4.25;2.80;;;;;;;16.24;100.00;92969.03;5046507;28;20049;-76
2023/05/29 05:49:39;;;;;;;4.85;2.25;;;;;;;16.48;100.00;92962.69;5046548;28;20045;-76
2023/05/29 05:52:06;;;;;;;3.25;1.83;;;;;;;16.64;100.00;92977.28;5046435;28;20103;-76
2023/05/29 05:54:33;;;;;;;3.38;1.70;;;;;;;16.77;100.00;92970.06;5046388;28;20049;-76
2023/05/29 05:57:00;;;;;;;4.93;2.67;;;;;;;16.98;100.00;92975.31;5046255;28;20049;-76
2023/05/29 05:59:27;;;;;;;4.22;2.05;;;;;;;17.07;100.00;92966.81;5048582;28;20106;-76
2023/05/29 06:01:56;;;;;;;4.80;2.10;;;;;;;16.94;100.00;92962.09;5050115;28;20045;-77
2023/05/29 06:04:22;;;;;;;3.78;2.28;;;;;;;16.80;100.00;92965.13;5050017;28;20547;-77
2023/05/29 06:06:49;;;;;;;3.15;1.60;;;;;;;16.55;100.00;92969.19;5050206;28;20048;-77
2023/05/29 06:09:16;;;;;;;2.80;1.58;;;;;;;16.35;100.00;92967.28;5048305;28;20045;-76
2023/05/29 06:11:43;;;;;;;2.58;1.67;;;;;;;16.53;100.00;92963.47;5049829;28;21157;-76
2023/05/29 06:14:10;;;;;;;2.58;1.20;;;;;;;16.65;100.00;92967.66;5049960;28;20041;-76
2023/05/29 06:16:37;;;;;;;2.50;1.30;;;;;;;16.71;100.00;92977.03;5049957;28;20490;-76
2023/05/29 06:19:05;;;;;;;2.60;1.60;;;;;;;16.66;100.00;92972.59;5050003;28;20051;-76
2023/05/29 06:21:32;;;;;;;4.97;1.40;;;;;;;16.29;100.00;92982.03;5050497;28;20048;-76
2023/05/29 06:23:59;;;;;;;2.60;1.38;;;;;;;16.55;100.00;92976.19;5049292;28;20077;-76
2023/05/29 06:26:26;;;;;;;2.20;1.40;;;;;;;16.30;100.00;92981.00;5050060;28;20049;-76
2023/05/29 06:28:55;;;;;;;3.05;1.20;;;;;;;16.17;100.00;92971.06;5049823;28;20041;-77
2023/05/29 06:31:22;;;;;;;2.88;1.35;;;;;;;16.13;100.00;92970.78;5049973;28;21039;-76
2023/05/29 06:33:51;;;;;;;3.05;1.95;;;;;;;16.19;100.00;92974.19;5049791;28;20049;-76
2023/05/29 06:36:20;;;;;;;3.25;1.88;;;;;;;16.38;100.00;92976.38;5049922;28;20472;-76
2023/05/29 06:38:48;;;;;;;3.13;2.03;;;;;;;16.62;100.00;92973.38;5048912;28;20148;-76
2023/05/29 06:41:14;;;;;;;3.25;1.80;;;;;;;16.77;100.00;92985.63;5049674;28;20088;-77
2023/05/29 06:43:41;;;;;;;2.58;1.58;;;;;;;16.76;100.00;92982.25;5049782;28;20048;-75
2023/05/29 06:46:08;;;;;;;2.25;1.13;;;;;;;16.99;100.00;92988.03;5049364;28;20049;-74
2023/05/29 06:48:35;;;;;;;2.50;1.30;;;;;;;16.34;100.00;92957.16;5049403;28;20053;-75
2023/05/29 06:51:03;;;;;;;3.20;1.40;;;;;;;16.43;100.00;92990.13;5049705;28;20048;-76
2023/05/29 06:53:31;;;;;;;2.85;1.58;;;;;;;16.69;100.00;92992.88;5049211;28;20474;-75
2023/05/29 06:55:58;;;;;;;2.55;1.55;;;;;;;17.05;100.00;92971.50;5049150;28;20421;-76
2023/05/29 06:58:25;;;;;;;2.03;1.15;;;;;;;17.36;100.00;92994.13;5049116;28;20049;-76
2023/05/29 07:00:54;;;;;;;3.20;1.35;;;;;;;17.04;100.00;92918.00;5049359;28;20044;-75
2023/05/29 07:03:21;;;;;;;2.75;1.67;;;;;;;17.45;100.00;92991.81;5049768;28;20055;-75
2023/05/29 07:05:47;;;;;;;2.08;1.27;;;;;;;17.76;100.00;92986.63;5049434;28;20045;-76
2023/05/29 07:08:14;;;;;;;5.22;2.25;;;;;;;17.30;100.00;93001.13;5048736;28;20605;-76
2023/05/29 07:10:42;;;;;;;3.63;2.13;;;;;;;17.17;100.00;92999.78;5048154;28;20076;-76
2023/05/29 07:13:09;;;;;;;2.15;1.25;;;;;;;16.79;100.00;92992.13;5048826;28;20453;-76
2023/05/29 07:15:38;;;;;;;1.92;0.88;;;;;;;16.66;100.00;92979.63;5048927;28;20132;-76
2023/05/29 07:18:05;;;;;;;2.53;1.20;;;;;;;17.04;100.00;92987.31;5040315;28;20034;-75
2023/05/29 07:20:32;;;;;;;3.17;1.45;;;;;;;16.96;100.00;92999.69;5045050;28;20103;-76
2023/05/29 07:22:58;;;;;;;1.80;0.80;;;;;;;16.88;100.00;92997.59;5048426;28;20052;-76
2023/05/29 07:25:26;;;;;;;2.63;0.73;;;;;;;16.69;100.00;92989.47;5048657;28;20551;-76
2023/05/29 07:27:54;;;;;;;1.30;0.50;;;;;;;16.73;100.00;92997.53;5049110;28;20126;-76
2023/05/29 07:30:21;;;;;;;1.50;0.60;;;;;;;16.88;100.00;92989.81;5048257;28;20045;-76
2023/05/29 07:32:48;;;;;;;1.27;0.57;;;;;;;17.09;100.00;92984.72;5048404;28;20123;-76
2023/05/29 07:35:14;;;;;;;1.55;0.70;;;;;;;17.19;100.00;92983.97;5047714;28;20045;-76
2023/05/29 07:37:41;;;;;;;0.98;0.43;;;;;;;17.43;100.00;92986.06;5048858;28;20110;-76
2023/05/29 07:40:10;;;;;;;1.73;1.00;;;;;;;17.50;100.00;92978.84;5047902;28;20571;-76
2023/05/29 07:42:39;;;;;;;2.45;1.17;;;;;;;17.29;100.00;92983.19;5048985;28;20052;-75
2023/05/29 07:45:08;;;;;;;1.35;0.70;;;;;;;17.18;100.00;92985.78;5048976;28;20110;-76
2023/05/29 07:47:35;;;;;;;1.70;1.00;;;;;;;17.45;100.00;92991.81;5048692;28;20044;-76
2023/05/29 07:50:02;;;;;;;2.95;1.35;;;;;;;17.45;100.00;92978.84;5048227;28;20045;-76
2023/05/29 07:52:28;;;;;;;2.05;1.20;;;;;;;17.47;100.00;92985.31;5047703;28;20059;-76
2023/05/29 07:54:55;;;;;;;1.67;0.85;;;;;;;17.72;100.00;92978.59;5048468;28;20040;-76
2023/05/29 07:57:22;;;;;;;1.95;0.95;;;;;;;17.74;100.00;92984.28;5047908;28;20048;-76
2023/05/29 07:59:49;;;;;;;2.65;1.20;;;;;;;17.85;100.00;92986.88;5048260;28;20098;-76
2023/05/29 08:02:17;;;;;;;2.97;1.45;;;;;;;17.37;100.00;92977.53;5047707;28;20073;-76
2023/05/29 08:04:44;;;;;;;2.08;1.30;;;;;;;17.45;100.00;92989.22;5047592;28;20102;-76
2023/05/29 08:07:11;;;;;;;3.67;1.80;;;;;;;17.55;100.00;92976.22;5021521;28;20041;-76
2023/05/29 08:09:38;;;;;;;3.90;1.88;;;;;;;17.25;100.00;92982.94;5047672;28;20529;-76
2023/05/29 08:12:05;;;;;;;2.25;1.10;;;;;;;17.58;100.00;92982.72;5047675;28;20052;-76
2023/05/29 08:14:32;;;;;;;2.97;1.00;;;;;;;17.54;100.00;92992.09;5047859;28;20052;-75
2023/05/29 08:16:59;;;;;;;2.00;1.25;;;;;;;17.65;100.00;92988.47;5040494;28;20045;-76
2023/05/29 08:19:27;;;;;;;2.40;1.27;;;;;;;17.63;100.00;92991.31;5041783;28;20141;-76
2023/05/29 08:21:55;;;;;;;2.50;1.38;;;;;;;17.68;100.00;92990.53;5047739;28;20052;-75
2023/05/29 08:24:21;;;;;;;1.92;1.30;;;;;;;18.01;99.43;92977.28;5047165;28;20053;-76
2023/05/29 08:26:48;;;;;;;6.15;2.17;;;;;;;17.93;100.00;92976.00;5047171;28;20044;-76
2023/05/29 08:29:15;;;;;;;2.03;1.05;;;;;;;18.31;98.77;92988.69;5047495;28;20095;-76
2023/05/29 08:31:42;;;;;;;4.15;1.48;;;;;;;18.39;98.69;92988.19;5047407;28;20107;-76
2023/05/29 08:34:10;;;;;;;3.03;1.60;;;;;;;18.75;100.00;92989.09;5047073;28;20111;-76
2023/05/29 08:36:40;;;;;;;5.22;2.35;;;;;;;18.52;100.00;92981.63;5047585;28;20067;-76
2023/05/29 08:39:07;;;;;;;2.65;1.30;;;;;;;18.20;100.00;92993.16;5047312;28;20049;-75
2023/05/29 08:41:43;;;;;;;2.35;1.10;;;;;;;18.22;100.00;92985.06;5047961;28;20114;-76
2023/05/29 08:44:14;;;;;;;6.18;1.83;;;;;;;18.25;98.37;92969.75;5047023;28;20076;-76
2023/05/29 08:46:42;;;;;;;3.08;1.52;;;;;;;18.42;100.00;92979.03;5047662;28;20080;-76
2023/05/29 08:49:09;;;;;;;2.85;1.42;;;;;;;18.51;100.00;92982.66;5046788;28;20146;-75
2023/05/29 08:51:43;;;;;;;4.43;1.55;;;;;;;18.56;99.54;92989.66;5047497;28;20072;-75
2023/05/29 08:54:11;;;;;;;3.63;1.63;;;;;;;18.42;99.33;92979.03;5047113;28;20052;-76
2023/05/29 08:56:37;;;;;;;2.15;1.27;;;;;;;18.45;100.00;92981.13;5047002;28;20498;-76
2023/05/29 08:59:05;;;;;;;2.22;1.30;;;;;;;18.76;98.56;92983.66;5021134;28;20049;-75
2023/05/29 09:01:32;;;;;;;2.33;1.45;;;;;;;18.98;98.98;92961.66;5047391;28;20052;-76
2023/05/29 09:03:59;;;;;;;4.25;1.45;;;;;;;19.64;95.94;92982.41;5047192;28;20049;-76
2023/05/29 09:06:26;;;;;;;5.05;2.28;;;;;;;19.63;93.71;92973.81;5046878;28;20100;-76
2023/05/29 09:08:55;;;;;;;4.13;1.48;;;;;;;19.78;94.64;92982.56;5047393;28;20527;-76
2023/05/29 09:11:22;;;;;;;9.48;2.15;;;;;;;19.69;92.36;92992.81;5047016;28;20053;-76
2023/05/29 09:13:49;;;;;;;3.95;2.42;;;;;;;19.49;94.08;92968.44;5046868;28;20150;-76
2023/05/29 09:16:17;;;;;;;3.08;1.23;;;;;;;19.13;94.09;92960.06;5046420;28;20048;-76
2023/05/29 09:18:45;;;;;;;2.63;1.20;;;;;;;19.36;95.95;92958.63;5047058;28;20073;-76
2023/05/29 09:21:26;;;;;;;2.67;1.00;;;;;;;19.73;93.95;92959.16;5047201;28;20052;-76
2023/05/29 09:23:55;;;;;;;2.03;1.15;;;;;;;20.00;90.14;92966.50;5029749;28;20123;-77
2023/05/29 09:26:23;;;;;;;2.72;1.20;;;;;;;19.98;88.98;92967.84;5045302;28;20052;-75
2023/05/29 09:28:49;;;;;;;2.72;1.27;;;;;;;20.00;89.56;92961.28;5043142;28;20080;-75
2023/05/29 09:31:18;;;;;;;1.55;1.00;;;;;;;20.03;85.17;92968.59;5046610;28;20049;-75
2023/05/29 09:33:49;;;;;;;2.45;1.45;;;;;;;19.86;87.48;92955.16;5047540;28;20497;-75
2023/05/29 09:36:21;;;;;;;2.33;1.40;;;;;;;19.66;83.81;92969.13;5050395;28;20528;-75
2023/05/29 09:38:48;;;;;;;3.00;1.48;;;;;;;19.57;82.26;92948.84;5050321;28;20076;-76
2023/05/29 09:41:23;;;;;;;1.60;0.70;;;;;;;19.78;89.07;92948.69;5050826;28;20130;-75
2023/05/29 09:43:50;;;;;;;4.32;2.05;;;;;;;20.10;89.14;92944.81;5049759;28;20412;-76
2023/05/29 09:46:18;;;;;;;1.83;1.00;;;;;;;20.08;89.07;92935.69;5050020;28;20045;-75
2023/05/29 09:48:47;;;;;;;2.08;1.00;;;;;;;20.16;87.99;92937.69;5050236;28;20052;-76
2023/05/29 09:51:21;;;;;;;2.05;1.38;;;;;;;20.56;83.22;92940.16;5050516;28;20082;-76
2023/05/29 09:53:50;;;;;;;1.48;0.90;;;;;;;20.58;83.46;92940.66;5050107;28;20049;-75
2023/05/29 09:56:18;;;;;;;2.13;1.10;;;;;;;20.41;84.22;92931.44;5050565;28;20131;-76
2023/05/29 09:58:47;;;;;;;2.60;1.52;;;;;;;20.66;81.96;92940.03;5050320;28;20516;-76
2023/05/29 10:01:15;;;;;;;1.70;1.02;;;;;;;20.70;84.65;92942.88;5050525;28;20119;-76
2023/05/29 10:03:42;;;;;;;2.03;0.80;;;;;;;20.32;82.94;92947.97;5050273;28;20080;-76
2023/05/29 10:06:13;;;;;;;2.22;1.10;;;;;;;20.60;83.50;92948.19;5050838;28;20143;-76
2023/05/29 10:08:48;;;;;;;1.38;0.90;;;;;;;20.61;83.18;92947.13;5049168;28;20463;-76
2023/05/29 10:11:19;;;;;;;1.95;1.05;;;;;;;21.01;81.68;92939.13;5050522;28;20072;-76
2023/05/29 10:13:51;;;;;;;1.77;1.05;;;;;;;21.67;80.40;92946.28;5050526;28;20106;-76
2023/05/29 10:16:21;;;;;;;1.67;0.88;;;;;;;21.25;81.47;92936.44;5049762;28;20490;-75
2023/05/29 10:18:54;;;;;;;2.25;1.10;;;;;;;21.05;80.22;92935.66;5049942;28;20502;-76
2023/05/29 10:21:22;;;;;;;2.78;1.15;;;;;;;20.14;82.28;92942.41;5050126;28;20080;-75
2023/05/29 10:23:51;;;;;;;3.65;0.95;;;;;;;20.19;84.13;92933.75;5050041;28;20045;-76
2023/05/29 10:26:22;;;;;;;2.45;1.42;;;;;;;20.64;82.86;92929.09;5050058;28;20049;-75
2023/05/29 10:28:58;;;;;;;1.73;0.85;;;;;;;20.62;80.12;92930.41;5049973;28;20469;-76
2023/05/29 10:31:31;;;;;;;1.50;1.08;;;;;;;21.18;79.09;92928.19;5049747;28;20057;-76
2023/05/29 10:34:15;;;;;;;1.50;0.77;;;;;;;21.41;76.01;92923.16;5049903;28;20060;-75
2023/05/29 10:36:48;;;;;;;1.58;0.82;;;;;;;20.85;75.38;92915.81;5049923;28;20418;-76
2023/05/29 10:39:15;;;;;;;2.05;1.05;;;;;;;21.27;76.62;92929.09;5049676;28;20049;-76
2023/05/29 10:41:42;;;;;;;1.85;1.40;;;;;;;21.28;77.66;92930.66;5023789;28;20045;-76
2023/05/29 10:47:24;;;;;;;4.07;1.00;;;;;;;21.14;79.41;92927.19;5065905;27;2146000;-76
2023/05/29 10:49:52;;;;;;;1.20;0.70;;;;;;;21.18;77.75;92925.56;5125246;28;20055;-74
2023/05/29 10:52:20;;;;;;;1.50;0.88;;;;;;;21.20;78.67;92924.22;5126063;28;20051;-76
2023/05/29 10:54:56;;;;;;;2.22;0.93;;;;;;;21.26;78.66;92922.31;5125897;28;20154;-75
2023/05/29 10:57:24;;;;;;;1.83;1.15;;;;;;;21.32;78.77;92917.78;5116113;28;20039;-74
2023/05/29 11:00:00;;;;;;;2.67;1.35;;;;;;;20.88;78.60;92915.25;5104540;28;20044;-75
2023/05/29 11:02:28;;;;;;;2.28;1.23;;;;;;;21.04;78.76;92915.03;5104739;28;20050;-74
2023/05/29 11:05:20;;;;;;;2.35;1.15;;;;;;;21.01;78.67;92903.34;5105104;28;20411;-74
2023/05/29 11:07:56;;;;;;;2.15;1.10;;;;;;;20.96;77.92;92911.22;5097280;28;20051;-75
2023/05/29 11:10:46;;;;;;;2.08;1.00;;;;;;;21.01;76.90;92889.50;5084562;28;20044;-75
2023/05/29 11:13:25;;;;;;;2.40;1.20;;;;;;;20.66;78.71;92890.47;5091315;28;20048;-74
2023/05/29 11:16:15;;;;;;;1.85;1.00;;;;;;;20.85;80.31;92901.94;5104466;28;20428;-74
2023/05/29 11:18:45;;;;;;;1.70;1.27;;;;;;;20.23;77.21;92869.56;5104268;28;20043;-74
2023/05/29 11:21:32;;;;;;;2.08;0.80;;;;;;;20.95;78.37;92899.25;5104369;28;20078;-74
2023/05/29 11:24:02;;;;;;;1.92;0.90;;;;;;;20.91;77.30;92896.41;5104195;28;20039;-75
2023/05/29 11:26:30;;;;;;;1.63;0.88;;;;;;;21.06;73.00;92899.88;5104235;28;20144;-74
2023/05/29 11:28:59;;;;;;;2.17;1.15;;;;;;;21.29;72.26;92890.41;5104119;28;20048;-76
2023/05/29 11:31:28;;;;;;;1.48;0.88;;;;;;;21.68;71.56;92893.72;5096193;28;20048;-75
2023/05/29 11:33:59;;;;;;;1.25;0.73;;;;;;;21.63;71.84;92888.59;5083064;28;20087;-75
2023/05/29 11:36:27;;;;;;;2.50;1.30;;;;;;;22.08;71.23;92884.72;5090062;28;20435;-75